Time;durP1;ratioP1;P1;durP2;ratioP2;P2;SDS_P1;SDS_P2;PMS_P1;PMS_P2;Temp;Humidity;BMP_temperature;BMP_pressure;BME280_temperature;BME280_humidity;BME280_pressure;Samples;Min_cycle;Max_cycle;Signal;HPM_P1;HPM_P2
2024/03/31 00:00:26;;;;;;;6.68;1.48;;;15.40;72.90;;;;;;2311362;55;21047;-68
2024/03/31 00:02:54;;;;;;;5.50;1.92;;;15.40;73.00;;;;;;2310647;55;21232;-67
2024/03/31 00:05:20;;;;;;;6.55;1.65;;;15.40;73.10;;;;;;2309680;55;20960;-68
2024/03/31 00:07:47;;;;;;;5.25;1.70;;;15.40;73.10;;;;;;2310347;56;21549;-66
2024/03/31 00:10:13;;;;;;;6.28;1.70;;;15.40;73.10;;;;;;2291828;56;21478;-68
2024/03/31 00:12:43;;;;;;;5.72;1.23;;;15.40;73.20;;;;;;2307195;55;20955;-67
2024/03/31 00:15:09;;;;;;;9.98;2.65;;;15.40;73.20;;;;;;2310291;56;21903;-68
2024/03/31 00:17:35;;;;;;;10.52;4.10;;;15.40;73.30;;;;;;2309446;55;20967;-67
2024/03/31 00:20:02;;;;;;;11.05;3.50;;;15.30;73.30;;;;;;2311194;56;20974;-68
2024/03/31 00:22:30;;;;;;;11.75;3.30;;;15.30;73.30;;;;;;2294936;55;21294;-68
2024/03/31 00:24:59;;;;;;;8.75;2.47;;;15.30;73.30;;;;;;2303786;56;21756;-69
2024/03/31 00:27:26;;;;;;;6.20;1.77;;;15.30;73.30;;;;;;2311009;55;21349;-68
2024/03/31 00:29:52;;;;;;;7.50;1.80;;;15.30;73.20;;;;;;2310199;56;20936;-69
2024/03/31 00:32:19;;;;;;;6.00;1.50;;;15.30;73.20;;;;;;2310857;55;21540;-68
2024/03/31 00:34:45;;;;;;;9.52;1.90;;;15.30;73.10;;;;;;2310345;56;21038;-69
2024/03/31 00:37:12;;;;;;;4.62;1.55;;;15.20;72.90;;;;;;2292356;56;20941;-69
2024/03/31 00:39:38;;;;;;;6.70;1.80;;;15.20;72.90;;;;;;2303928;56;21831;-68
2024/03/31 00:42:04;;;;;;;9.35;1.40;;;15.20;72.90;;;;;;2310199;55;21512;-68
2024/03/31 00:44:32;;;;;;;8.65;1.90;;;15.10;72.80;;;;;;2310311;55;20971;-67
2024/03/31 00:46:58;;;;;;;9.27;2.30;;;15.10;73.40;;;;;;2310206;56;20987;-69
2024/03/31 00:49:24;;;;;;;10.07;2.22;;;15.10;72.60;;;;;;2310442;55;20923;-68
2024/03/31 00:51:51;;;;;;;10.52;2.08;;;15.00;72.30;;;;;;2310191;56;20992;-69
2024/03/31 00:54:17;;;;;;;6.72;1.98;;;15.00;72.20;;;;;;2310194;55;21059;-69
2024/03/31 00:56:44;;;;;;;11.85;2.70;;;14.90;72.20;;;;;;2287193;55;21020;-69
2024/03/31 00:59:10;;;;;;;7.95;1.87;;;14.90;72.20;;;;;;2310574;55;21039;-68
2024/03/31 01:01:37;;;;;;;11.02;1.90;;;14.80;72.20;;;;;;2310115;55;21013;-70
2024/03/31 01:04:04;;;;;;;7.87;1.87;;;14.80;72.40;;;;;;2310616;56;21020;-67
2024/03/31 01:06:31;;;;;;;10.98;1.92;;;14.70;72.50;;;;;;2310321;55;21003;-67
2024/03/31 01:08:57;;;;;;;10.35;1.98;;;14.70;72.60;;;;;;2309955;55;21559;-68
2024/03/31 01:11:23;;;;;;;9.60;1.90;;;14.70;72.90;;;;;;2287336;56;20932;-68
2024/03/31 01:13:50;;;;;;;8.13;1.75;;;14.70;73.10;;;;;;2309998;56;20956;-67
2024/03/31 01:16:16;;;;;;;8.60;1.62;;;14.60;73.10;;;;;;2301055;55;21961;-70
2024/03/31 01:18:43;;;;;;;6.72;1.52;;;14.70;73.30;;;;;;2278071;56;21026;-68
2024/03/31 01:21:09;;;;;;;6.55;1.73;;;14.60;73.30;;;;;;2310467;56;21376;-67
2024/03/31 01:24:36;;;;;;;9.45;1.95;;;14.70;73.50;;;;;;2308950;56;21342;-68
2024/03/31 01:27:05;;;;;;;7.53;1.40;;;14.70;72.70;;;;;;2279420;55;21437;-69
2024/03/31 01:29:31;;;;;;;7.82;1.80;;;14.60;73.60;;;;;;2279144;55;21014;-68
2024/03/31 01:31:58;;;;;;;6.37;1.25;;;14.60;73.50;;;;;;2279520;55;20982;-67
2024/03/31 01:34:24;;;;;;;7.72;2.00;;;14.60;73.50;;;;;;2279886;55;21749;-68
2024/03/31 01:36:50;;;;;;;8.82;2.20;;;14.60;73.60;;;;;;2278927;55;21753;-68
2024/03/31 01:39:18;;;;;;;5.10;1.35;;;14.70;73.60;;;;;;2278574;54;21011;-68
2024/03/31 01:41:47;;;;;;;8.73;1.62;;;14.60;73.50;;;;;;2277553;54;21000;-69
2024/03/31 01:44:13;;;;;;;6.35;1.48;;;14.60;73.50;;;;;;2279859;55;21050;-68
2024/03/31 01:46:39;;;;;;;7.85;1.70;;;14.60;73.50;;;;;;2279174;55;21041;-69
2024/03/31 01:49:06;;;;;;;5.78;1.40;;;14.60;73.50;;;;;;2279535;55;21054;-67
2024/03/31 01:51:32;;;;;;;4.68;1.27;;;14.50;73.30;;;;;;2297695;55;20959;-67
2024/03/31 01:53:59;;;;;;;8.88;1.80;;;14.50;73.30;;;;;;2310239;55;21232;-68
2024/03/31 01:56:25;;;;;;;6.32;1.50;;;14.50;73.30;;;;;;2311605;55;21529;-68
2024/03/31 01:58:52;;;;;;;9.98;1.70;;;14.50;73.40;;;;;;2287095;55;20995;-68
2024/03/31 02:01:18;;;;;;;7.47;1.70;;;14.50;73.40;;;;;;2310226;55;21084;-68
2024/03/31 02:03:47;;;;;;;5.05;1.35;;;14.60;73.50;;;;;;2310040;56;20995;-68
2024/03/31 02:06:13;;;;;;;3.95;1.45;;;14.50;73.30;;;;;;2310351;56;21504;-68
2024/03/31 02:08:39;;;;;;;5.93;1.52;;;14.50;73.40;;;;;;2310198;55;21011;-67
2024/03/31 02:11:06;;;;;;;6.50;1.37;;;14.50;73.40;;;;;;2310417;56;20967;-68
2024/03/31 02:13:35;;;;;;;3.47;0.98;;;14.50;73.30;;;;;;2310617;56;20988;-68
2024/03/31 02:16:01;;;;;;;4.82;1.30;;;14.50;73.30;;;;;;2310906;55;21759;-69
2024/03/31 02:18:29;;;;;;;4.72;1.33;;;14.50;73.30;;;;;;2310909;55;21067;-67
2024/03/31 02:20:55;;;;;;;7.40;1.70;;;14.50;73.20;;;;;;2310126;55;21007;-68
2024/03/31 02:23:23;;;;;;;4.65;1.50;;;14.40;73.10;;;;;;2310332;55;21027;-67
2024/03/31 02:25:49;;;;;;;5.35;1.52;;;14.40;73.00;;;;;;2310108;56;20955;-69
2024/03/31 02:28:15;;;;;;;6.45;1.55;;;14.50;73.10;;;;;;2310502;56;21275;-67
2024/03/31 02:30:42;;;;;;;4.78;1.20;;;14.40;72.90;;;;;;2310575;55;21039;-69
2024/03/31 02:33:08;;;;;;;6.72;1.62;;;14.40;72.80;;;;;;2310492;56;21908;-69
2024/03/31 02:35:37;;;;;;;9.85;1.80;;;14.30;72.60;;;;;;2287872;55;20936;-67
2024/03/31 02:38:04;;;;;;;6.30;1.30;;;14.30;72.60;;;;;;2295129;56;20981;-69
2024/03/31 02:40:30;;;;;;;4.57;1.25;;;14.20;72.40;;;;;;2303218;56;20963;-68
2024/03/31 02:42:57;;;;;;;7.25;1.40;;;14.20;72.20;;;;;;2309843;56;20991;-68
2024/03/31 02:45:23;;;;;;;6.07;1.40;;;14.20;72.20;;;;;;2310227;55;21556;-68
2024/03/31 02:47:49;;;;;;;4.22;1.15;;;14.10;72.10;;;;;;2304553;55;22022;-68
2024/03/31 02:50:16;;;;;;;5.97;1.10;;;14.10;71.90;;;;;;2292980;56;20952;-69
2024/03/31 02:52:42;;;;;;;6.57;1.30;;;14.00;71.80;;;;;;2309874;55;21200;-69
2024/03/31 02:55:09;;;;;;;3.62;1.17;;;14.00;71.90;;;;;;2309972;55;20916;-69
2024/03/31 02:57:35;;;;;;;6.45;1.12;;;13.90;71.80;;;;;;2310536;55;21275;-68
2024/03/31 03:00:01;;;;;;;6.87;1.17;;;13.90;71.80;;;;;;2310298;56;21027;-68
2024/03/31 03:02:28;;;;;;;4.32;0.98;;;13.80;71.70;;;;;;2310459;55;21040;-68
2024/03/31 03:04:58;;;;;;;4.20;0.95;;;13.80;71.70;;;;;;2310409;55;21015;-67
2024/03/31 03:07:25;;;;;;;7.25;1.10;;;13.70;71.50;;;;;;2311030;55;20936;-67
2024/03/31 03:09:51;;;;;;;5.05;1.10;;;13.70;71.40;;;;;;2310716;55;21070;-67
2024/03/31 03:12:17;;;;;;;6.00;1.35;;;13.70;71.40;;;;;;2299254;55;21478;-68
2024/03/31 03:14:43;;;;;;;5.03;1.33;;;13.60;71.40;;;;;;2298859;55;21075;-68
2024/03/31 03:17:10;;;;;;;4.72;1.17;;;13.50;71.40;;;;;;2310893;55;21244;-68
2024/03/31 03:19:36;;;;;;;5.20;1.10;;;13.50;71.50;;;;;;2310626;55;21054;-68
2024/03/31 03:22:03;;;;;;;5.12;1.30;;;13.40;71.50;;;;;;2310528;56;20944;-67
2024/03/31 03:24:29;;;;;;;5.82;1.10;;;13.40;71.60;;;;;;2310273;56;21351;-67
2024/03/31 03:26:55;;;;;;;5.18;1.12;;;13.30;71.50;;;;;;2309421;56;21523;-68
2024/03/31 03:29:23;;;;;;;4.25;1.15;;;13.30;71.60;;;;;;2310425;56;21856;-67
2024/03/31 03:31:49;;;;;;;5.75;1.00;;;13.20;71.40;;;;;;2309841;56;20991;-67
2024/03/31 03:34:15;;;;;;;3.47;1.08;;;13.30;71.50;;;;;;2310032;56;21092;-68
2024/03/31 03:36:42;;;;;;;3.65;0.88;;;13.20;71.30;;;;;;2294196;56;20988;-67
2024/03/31 03:39:08;;;;;;;5.30;1.02;;;13.10;71.20;;;;;;2303908;55;21274;-67
2024/03/31 03:41:36;;;;;;;4.47;1.08;;;13.10;71.20;;;;;;2310723;55;21007;-67
2024/03/31 03:44:02;;;;;;;6.37;1.23;;;13.00;71.10;;;;;;2310465;55;20955;-67
2024/03/31 03:46:28;;;;;;;5.82;1.17;;;13.00;71.20;;;;;;2310433;56;21208;-69
2024/03/31 03:48:54;;;;;;;8.85;1.10;;;12.90;71.10;;;;;;2298474;55;21848;-69
2024/03/31 03:51:21;;;;;;;4.37;1.40;;;12.90;71.20;;;;;;2300965;56;20987;-68
2024/03/31 03:53:47;;;;;;;8.13;1.10;;;12.80;71.20;;;;;;2305642;55;21005;-69
2024/03/31 03:56:13;;;;;;;9.10;1.55;;;12.80;71.20;;;;;;2292274;56;20984;-68
2024/03/31 03:58:40;;;;;;;4.12;1.15;;;12.70;71.20;;;;;;2310898;56;20928;-67
2024/03/31 04:01:06;;;;;;;5.87;1.58;;;12.70;71.30;;;;;;2310499;55;21319;-67
2024/03/31 04:03:32;;;;;;;8.07;1.60;;;12.70;71.50;;;;;;2310804;55;21469;-68
2024/03/31 04:05:59;;;;;;;13.40;4.72;;;12.60;71.50;;;;;;2310135;56;21019;-67
2024/03/31 04:08:25;;;;;;;10.52;3.35;;;12.60;71.70;;;;;;2310968;55;21011;-67
2024/03/31 04:10:52;;;;;;;8.63;2.45;;;12.50;71.70;;;;;;2309687;56;21168;-68
2024/03/31 04:13:18;;;;;;;6.05;1.80;;;12.60;71.90;;;;;;2311004;55;21331;-68
2024/03/31 04:15:44;;;;;;;7.37;1.50;;;12.50;71.80;;;;;;2310849;55;21619;-67
2024/03/31 04:18:10;;;;;;;4.55;1.50;;;12.50;71.90;;;;;;2310383;56;21075;-68
2024/03/31 04:20:40;;;;;;;4.53;1.05;;;12.50;71.90;;;;;;2311001;55;20960;-68
2024/03/31 04:23:07;;;;;;;7.10;1.10;;;12.50;72.00;;;;;;2310173;55;21003;-67
2024/03/31 04:25:33;;;;;;;5.12;1.02;;;12.40;72.00;;;;;;2310441;55;20943;-69
2024/03/31 04:28:03;;;;;;;7.20;1.60;;;12.40;72.10;;;;;;2310354;55;21027;-67
2024/03/31 04:30:29;;;;;;;5.12;1.05;;;12.40;72.30;;;;;;2310785;56;20979;-67
2024/03/31 04:32:55;;;;;;;5.43;1.30;;;12.40;72.40;;;;;;2310048;55;20931;-68
2024/03/31 04:35:24;;;;;;;6.35;1.10;;;12.40;72.60;;;;;;2310869;56;20959;-67
2024/03/31 04:37:51;;;;;;;6.40;1.00;;;12.40;72.80;;;;;;2310050;56;20959;-68
2024/03/31 04:40:17;;;;;;;5.72;1.33;;;12.40;72.80;;;;;;2310587;56;20967;-69
2024/03/31 04:42:47;;;;;;;4.97;0.88;;;12.40;72.90;;;;;;2310450;56;21043;-68
2024/03/31 04:45:13;;;;;;;4.20;1.08;;;12.40;72.90;;;;;;2310358;55;20967;-67
2024/03/31 04:47:39;;;;;;;4.30;0.80;;;12.40;73.00;;;;;;2310320;56;20947;-68
2024/03/31 04:50:05;;;;;;;4.93;1.10;;;12.40;73.10;;;;;;2310111;55;21039;-69
2024/03/31 04:52:33;;;;;;;7.05;1.10;;;12.40;73.20;;;;;;2310767;56;20920;-67
2024/03/31 04:55:00;;;;;;;3.78;0.80;;;12.40;73.20;;;;;;2310974;56;21513;-66
2024/03/31 04:57:26;;;;;;;5.53;1.10;;;12.40;73.30;;;;;;2310899;56;21047;-67
2024/03/31 04:59:52;;;;;;;4.35;1.05;;;12.40;73.30;;;;;;2310258;56;21023;-67
2024/03/31 05:02:19;;;;;;;5.62;1.10;;;12.40;73.10;;;;;;2305870;56;21870;-69
2024/03/31 05:04:45;;;;;;;10.05;1.48;;;12.40;73.80;;;;;;2292400;56;21656;-69
2024/03/31 05:07:12;;;;;;;6.22;1.30;;;12.40;73.00;;;;;;2294792;55;21000;-68
2024/03/31 05:09:38;;;;;;;4.07;1.23;;;12.40;73.00;;;;;;2275808;55;21013;-67
2024/03/31 05:12:04;;;;;;;9.88;1.85;;;12.40;73.00;;;;;;2280874;56;20951;-67
2024/03/31 05:14:31;;;;;;;7.75;1.70;;;12.40;73.00;;;;;;2302351;55;20967;-67
2024/03/31 05:16:57;;;;;;;6.30;1.40;;;12.40;72.90;;;;;;2310000;56;20968;-68
2024/03/31 05:19:24;;;;;;;10.02;2.28;;;12.40;72.90;;;;;;2288270;55;20965;-68
2024/03/31 05:21:50;;;;;;;7.62;1.90;;;12.40;72.90;;;;;;2310740;56;21455;-68
2024/03/31 05:24:18;;;;;;;7.90;2.58;;;12.40;72.90;;;;;;2310596;55;20955;-67
2024/03/31 05:26:45;;;;;;;6.37;2.20;;;12.40;72.80;;;;;;2310261;56;21405;-68
2024/03/31 05:29:11;;;;;;;9.38;2.12;;;12.40;72.90;;;;;;2308994;56;21211;-67
2024/03/31 05:31:38;;;;;;;7.40;2.08;;;12.30;72.80;;;;;;2310665;55;21592;-68
2024/03/31 05:34:04;;;;;;;4.75;1.45;;;12.40;73.00;;;;;;2310222;56;21090;-67
2024/03/31 05:36:31;;;;;;;10.55;2.10;;;12.40;73.00;;;;;;2296855;56;21462;-68
2024/03/31 05:38:58;;;;;;;10.93;2.37;;;12.40;72.90;;;;;;2300100;56;20983;-67
2024/03/31 05:41:24;;;;;;;8.27;2.10;;;12.40;72.80;;;;;;2287638;56;20980;-68
2024/03/31 05:43:50;;;;;;;5.75;2.40;;;12.30;72.70;;;;;;2292497;56;21310;-67
2024/03/31 05:46:18;;;;;;;3.58;1.70;;;12.30;72.80;;;;;;2289495;55;21772;-68
2024/03/31 05:48:44;;;;;;;3.55;2.00;;;12.30;72.80;;;;;;2288237;55;21277;-68
2024/03/31 05:51:10;;;;;;;4.57;2.22;;;12.30;72.80;;;;;;2303360;56;21750;-68
2024/03/31 05:53:37;;;;;;;3.20;1.70;;;12.30;72.80;;;;;;2310734;55;20936;-68
2024/03/31 05:56:03;;;;;;;3.72;1.30;;;12.30;72.80;;;;;;2309772;55;21024;-66
2024/03/31 05:58:30;;;;;;;4.65;1.65;;;12.30;72.80;;;;;;2303789;55;20985;-68
2024/03/31 06:00:56;;;;;;;3.72;1.48;;;12.30;72.70;;;;;;2295242;56;21011;-67
2024/03/31 06:03:22;;;;;;;3.25;1.48;;;12.30;72.70;;;;;;2286310;56;21329;-67
2024/03/31 06:05:48;;;;;;;3.45;1.40;;;12.30;72.80;;;;;;2310203;55;21015;-68
2024/03/31 06:08:15;;;;;;;8.20;1.45;;;12.30;72.90;;;;;;2309941;55;20964;-67
2024/03/31 06:10:41;;;;;;;3.42;1.30;;;12.40;73.00;;;;;;2310555;55;20955;-68
2024/03/31 06:13:09;;;;;;;5.18;1.20;;;12.30;72.90;;;;;;2310080;55;21392;-66
2024/03/31 06:15:37;;;;;;;5.75;1.40;;;12.30;73.00;;;;;;2310897;56;20963;-68
2024/03/31 06:18:04;;;;;;;5.70;1.62;;;12.30;73.00;;;;;;2309444;55;21007;-68
2024/03/31 06:20:30;;;;;;;4.43;1.73;;;12.30;73.20;;;;;;2310761;56;21031;-68
2024/03/31 06:22:59;;;;;;;5.60;1.77;;;12.30;73.40;;;;;;2286807;55;20987;-68
2024/03/31 06:25:25;;;;;;;4.47;1.80;;;12.30;73.60;;;;;;2311215;55;20998;-67
2024/03/31 06:27:52;;;;;;;5.30;1.60;;;12.30;73.60;;;;;;2281949;55;21029;-66
2024/03/31 06:30:19;;;;;;;5.82;2.12;;;12.20;73.60;;;;;;2310222;56;20979;-68
2024/03/31 06:32:45;;;;;;;4.95;1.60;;;12.40;73.80;;;;;;2293896;55;21993;-67
2024/03/31 06:35:11;;;;;;;6.55;1.70;;;12.40;73.90;;;;;;2283785;56;21323;-67
2024/03/31 06:37:38;;;;;;;3.35;1.50;;;12.50;74.10;;;;;;2310843;55;20963;-67
2024/03/31 06:40:05;;;;;;;2.47;1.20;;;12.50;74.20;;;;;;2310032;55;20979;-68
2024/03/31 06:42:31;;;;;;;3.67;1.17;;;12.50;74.20;;;;;;2310618;56;20939;-68
2024/03/31 06:44:58;;;;;;;12.80;2.20;;;12.50;74.20;;;;;;2273414;56;21009;-67
2024/03/31 06:47:25;;;;;;;4.20;1.42;;;12.60;74.30;;;;;;2306141;55;20951;-67
2024/03/31 06:49:52;;;;;;;2.70;1.17;;;12.60;74.20;;;;;;2309789;56;21300;-68
2024/03/31 06:52:18;;;;;;;4.82;1.73;;;12.60;74.10;;;;;;2310358;56;21415;-69
2024/03/31 06:54:44;;;;;;;6.62;3.42;;;12.70;74.20;;;;;;2549711;54;21397;-70
2024/03/31 06:57:10;;;;;;;9.80;3.40;;;12.70;74.30;;;;;;2309893;56;20987;-69
2024/03/31 06:59:37;;;;;;;8.13;2.22;;;12.70;74.30;;;;;;2309881;55;21459;-67
2024/03/31 07:02:06;;;;;;;10.52;2.10;;;12.80;74.30;;;;;;2310707;55;21003;-68
2024/03/31 07:04:35;;;;;;;3.37;1.60;;;12.80;74.20;;;;;;2304681;55;21046;-68
2024/03/31 07:07:02;;;;;;;7.72;1.98;;;12.80;74.20;;;;;;2293924;55;20940;-68
2024/03/31 07:09:28;;;;;;;5.28;1.40;;;12.90;74.20;;;;;;2299901;55;21065;-69
2024/03/31 07:11:55;;;;;;;3.12;1.40;;;13.00;74.30;;;;;;2300840;56;21024;-68
2024/03/31 07:14:21;;;;;;;3.20;1.33;;;12.90;74.30;;;;;;2307325;55;20994;-68
2024/03/31 07:16:48;;;;;;;3.97;2.00;;;12.90;74.20;;;;;;2288236;56;21284;-68
2024/03/31 07:19:14;;;;;;;7.53;2.60;;;13.00;74.30;;;;;;2310074;56;21027;-68
2024/03/31 07:21:40;;;;;;;3.10;1.50;;;12.90;74.30;;;;;;2310870;55;21817;-69
2024/03/31 07:24:07;;;;;;;4.05;2.10;;;13.00;74.40;;;;;;2309186;55;21082;-68
2024/03/31 07:26:33;;;;;;;3.30;1.80;;;13.10;74.50;;;;;;2310411;55;21240;-67
2024/03/31 07:28:59;;;;;;;5.35;2.03;;;13.10;74.60;;;;;;2309891;55;21023;-67
2024/03/31 07:31:26;;;;;;;3.37;1.70;;;13.20;74.70;;;;;;2309729;55;21291;-69
2024/03/31 07:33:52;;;;;;;5.82;2.17;;;13.20;74.70;;;;;;2309685;55;21003;-68
2024/03/31 07:36:18;;;;;;;4.03;1.90;;;13.20;74.80;;;;;;2309581;55;20943;-68
2024/03/31 07:38:45;;;;;;;3.80;1.83;;;13.30;74.90;;;;;;2310299;55;21395;-69
2024/03/31 07:41:11;;;;;;;2.87;1.60;;;13.30;74.90;;;;;;2310008;55;21020;-68
2024/03/31 07:43:38;;;;;;;4.87;1.70;;;13.40;75.10;;;;;;2310125;55;21505;-67
2024/03/31 07:46:04;;;;;;;3.40;1.52;;;13.40;75.20;;;;;;2310100;56;21027;-67
2024/03/31 07:48:31;;;;;;;3.45;1.55;;;13.50;75.40;;;;;;2310056;56;20956;-69
2024/03/31 07:50:57;;;;;;;3.50;1.58;;;13.50;75.50;;;;;;2310063;55;20947;-68
2024/03/31 07:53:23;;;;;;;4.65;1.98;;;13.60;75.50;;;;;;2310358;55;20963;-68
2024/03/31 07:55:59;;;;;;;3.95;2.10;;;13.70;75.60;;;;;;2310730;55;21086;-67
2024/03/31 07:58:29;;;;;;;3.58;1.67;;;13.70;75.20;;;;;;2279032;56;21060;-67
2024/03/31 08:01:00;;;;;;;4.07;2.00;;;13.80;75.40;;;;;;2297957;55;21007;-69
2024/03/31 08:03:31;;;;;;;4.37;2.40;;;13.90;76.30;;;;;;2310776;56;21035;-67
2024/03/31 08:05:58;;;;;;;4.80;1.80;;;13.90;75.50;;;;;;2312481;55;21111;-68
2024/03/31 08:08:24;;;;;;;4.18;1.60;;;14.00;75.60;;;;;;2310479;55;21418;-68
2024/03/31 08:10:50;;;;;;;3.70;1.58;;;14.00;75.40;;;;;;2310736;56;20949;-68
2024/03/31 08:13:18;;;;;;;4.50;1.80;;;14.10;75.10;;;;;;2310458;55;20975;-67
2024/03/31 08:15:45;;;;;;;3.67;1.45;;;14.10;74.80;;;;;;2310446;55;20959;-69
2024/03/31 08:18:12;;;;;;;3.75;1.30;;;14.10;74.60;;;;;;2310237;56;21308;-67
2024/03/31 08:20:38;;;;;;;3.10;1.62;;;14.20;74.60;;;;;;2310787;56;20964;-68
2024/03/31 08:23:04;;;;;;;5.32;1.87;;;14.20;74.30;;;;;;2310040;56;20959;-68
2024/03/31 08:25:31;;;;;;;3.70;1.73;;;14.20;74.10;;;;;;2309476;55;21083;-69
2024/03/31 08:27:57;;;;;;;4.28;1.40;;;14.20;74.00;;;;;;2310757;55;20958;-68
2024/03/31 08:30:27;;;;;;;3.80;1.65;;;14.30;74.30;;;;;;2518090;54;21379;-68
2024/03/31 08:32:54;;;;;;;3.05;1.42;;;14.30;74.30;;;;;;2309811;56;21319;-67
2024/03/31 08:35:20;;;;;;;6.05;2.10;;;14.30;74.20;;;;;;2287322;55;21631;-69
2024/03/31 08:37:47;;;;;;;5.50;1.70;;;14.30;74.10;;;;;;2311096;55;21765;-68
2024/03/31 08:40:14;;;;;;;4.53;1.62;;;14.30;74.10;;;;;;2287879;55;21343;-68
2024/03/31 08:42:47;;;;;;;5.78;1.90;;;14.30;74.00;;;;;;2310710;55;21082;-68
2024/03/31 08:45:13;;;;;;;5.15;2.08;;;14.30;73.80;;;;;;2310136;56;20938;-68
2024/03/31 08:47:41;;;;;;;5.45;1.52;;;14.30;74.20;;;;;;2310942;55;20928;-67
2024/03/31 08:50:11;;;;;;;6.72;2.08;;;14.30;74.30;;;;;;2310417;55;21075;-68
2024/03/31 08:52:38;;;;;;;5.37;2.08;;;14.40;74.60;;;;;;2285613;56;21510;-70
2024/03/31 08:55:04;;;;;;;4.80;1.48;;;14.40;74.70;;;;;;2300763;55;20956;-69
2024/03/31 08:57:31;;;;;;;5.28;1.55;;;14.40;74.90;;;;;;2298094;55;20951;-69
2024/03/31 08:59:58;;;;;;;6.43;2.08;;;14.40;75.00;;;;;;2310758;55;20963;-69
2024/03/31 09:02:24;;;;;;;5.32;2.00;;;14.60;75.20;;;;;;2310700;55;21035;-68
2024/03/31 09:04:51;;;;;;;6.28;1.87;;;14.60;75.10;;;;;;2310552;56;21436;-68
2024/03/31 09:07:17;;;;;;;7.07;2.58;;;14.60;75.00;;;;;;2282741;56;21037;-69
2024/03/31 09:09:44;;;;;;;8.73;2.80;;;14.60;74.90;;;;;;2294096;56;21055;-69
2024/03/31 09:12:10;;;;;;;7.70;2.50;;;14.60;75.00;;;;;;2309284;55;21224;-67
2024/03/31 09:14:42;;;;;;;6.28;2.37;;;14.70;75.20;;;;;;2310358;56;21035;-68
2024/03/31 09:17:09;;;;;;;;;;;14.70;75.30;;;;;;2313625;56;21222;-68
2024/03/31 09:19:35;;;;;;;4.82;1.90;;;14.80;74.40;;;;;;2309519;55;20079;-69
2024/03/31 09:22:01;;;;;;;3.05;1.45;;;14.80;75.40;;;;;;2309927;55;21056;-68
2024/03/31 09:24:30;;;;;;;6.73;2.10;;;14.90;75.60;;;;;;2265479;55;1379005;-70
2024/03/31 09:26:56;;;;;;;3.00;1.35;;;14.90;75.70;;;;;;2310505;55;20972;-68
2024/03/31 09:29:24;;;;;;;5.57;1.60;;;15.00;75.80;;;;;;2310363;56;20955;-67
2024/03/31 09:31:51;;;;;;;3.60;1.30;;;15.10;75.90;;;;;;2310446;55;21368;-67
2024/03/31 09:34:20;;;;;;;3.65;1.40;;;15.10;75.80;;;;;;2310536;56;21011;-67
2024/03/31 09:36:46;;;;;;;5.37;1.80;;;15.20;75.90;;;;;;2310958;55;21244;-68
2024/03/31 09:39:14;;;;;;;5.78;1.90;;;15.30;76.30;;;;;;2310545;56;20995;-68
2024/03/31 09:41:40;;;;;;;5.78;1.98;;;15.30;76.50;;;;;;2310735;55;21040;-70
2024/03/31 09:44:08;;;;;;;5.00;1.87;;;15.40;76.70;;;;;;2310327;55;20916;-69
2024/03/31 09:46:34;;;;;;;6.72;2.17;;;15.50;76.60;;;;;;2309189;55;20939;-70
2024/03/31 09:49:03;;;;;;;6.30;2.20;;;15.60;76.70;;;;;;2310819;55;20959;-68
2024/03/31 09:51:34;;;;;;;5.62;1.95;;;15.60;76.50;;;;;;2310236;55;21157;-69
2024/03/31 09:54:02;;;;;;;4.90;1.70;;;15.70;76.40;;;;;;2277537;56;20962;-68
2024/03/31 09:56:41;;;;;;;4.75;1.80;;;15.80;76.50;;;;;;2278621;56;20954;-69
2024/03/31 09:59:11;;;;;;;5.07;1.87;;;15.90;76.10;;;;;;2278996;55;21069;-68
2024/03/31 10:01:38;;;;;;;6.65;1.70;;;15.90;76.30;;;;;;2281744;55;22096;-68
2024/03/31 10:04:09;;;;;;;7.20;2.05;;;16.00;76.30;;;;;;2278778;55;20986;-68
2024/03/31 10:06:35;;;;;;;6.85;2.00;;;16.10;76.40;;;;;;2278621;55;21342;-68
2024/03/31 10:09:02;;;;;;;5.72;2.35;;;16.10;76.40;;;;;;2279048;54;20951;-69
2024/03/31 10:11:29;;;;;;;7.35;2.30;;;16.20;76.60;;;;;;2275034;55;21179;-71
2024/03/31 10:13:58;;;;;;;4.78;1.85;;;16.30;76.70;;;;;;2279104;55;20993;-68
2024/03/31 10:16:24;;;;;;;4.62;2.12;;;16.40;76.90;;;;;;2279023;55;21439;-68
2024/03/31 10:18:50;;;;;;;5.43;2.22;;;16.40;77.00;;;;;;2279318;55;20987;-70
2024/03/31 10:21:17;;;;;;;7.00;2.42;;;16.60;77.20;;;;;;2281061;55;21555;-68
2024/03/31 10:23:43;;;;;;;9.07;2.28;;;16.60;76.80;;;;;;2310223;56;20971;-68
2024/03/31 10:26:12;;;;;;;4.82;2.17;;;16.70;76.50;;;;;;2310182;55;21082;-69
2024/03/31 10:28:39;;;;;;;7.00;2.50;;;16.70;76.10;;;;;;2310710;55;21450;-70
2024/03/31 10:31:05;;;;;;;5.53;2.12;;;16.80;75.80;;;;;;2310242;55;20953;-70
2024/03/31 10:33:31;;;;;;;6.20;2.12;;;16.80;75.80;;;;;;2310008;55;20939;-68
2024/03/31 10:35:58;;;;;;;6.78;2.30;;;16.80;75.90;;;;;;2309271;55;22274;-69
2024/03/31 10:38:25;;;;;;;7.65;2.40;;;16.90;76.10;;;;;;2310639;56;20970;-69
2024/03/31 10:40:51;;;;;;;4.57;2.35;;;17.00;76.30;;;;;;2310827;55;21030;-69
2024/03/31 10:43:19;;;;;;;4.35;2.40;;;17.10;76.40;;;;;;2286477;55;20999;-70
2024/03/31 10:45:45;;;;;;;5.05;2.35;;;17.10;76.50;;;;;;2309862;56;21318;-69
2024/03/31 10:48:12;;;;;;;8.85;3.33;;;17.10;76.30;;;;;;2310300;56;22465;-68
2024/03/31 10:50:45;;;;;;;4.30;2.30;;;17.20;76.20;;;;;;2310160;56;21011;-69
2024/03/31 10:53:11;;;;;;;5.97;2.30;;;17.30;76.30;;;;;;2310199;56;20959;-69
2024/03/31 10:55:45;;;;;;;5.22;2.65;;;17.40;76.60;;;;;;2310468;56;20947;-68
2024/03/31 10:58:18;;;;;;;6.10;2.70;;;17.40;76.00;;;;;;2310339;55;20943;-68
2024/03/31 11:00:45;;;;;;;6.32;2.22;;;17.50;76.10;;;;;;2310053;56;20968;-68
2024/03/31 11:03:12;;;;;;;5.85;2.45;;;17.40;76.10;;;;;;2309804;56;20952;-68
2024/03/31 11:05:39;;;;;;;7.28;2.30;;;17.60;76.40;;;;;;2309596;55;21514;-71
2024/03/31 11:08:07;;;;;;;6.80;2.65;;;17.70;76.50;;;;;;2309981;56;21011;-70
2024/03/31 11:10:34;;;;;;;9.52;3.53;;;17.70;76.50;;;;;;2286957;56;21059;-69
2024/03/31 11:13:02;;;;;;;9.30;3.10;;;17.80;76.30;;;;;;2270089;56;22269;-70
2024/03/31 11:15:28;;;;;;;7.18;2.70;;;17.80;76.20;;;;;;2307650;55;21504;-70
2024/03/31 11:17:54;;;;;;;7.60;2.72;;;17.90;76.30;;;;;;2308624;55;20947;-69
2024/03/31 11:20:22;;;;;;;9.63;2.90;;;17.90;76.30;;;;;;2309866;55;21007;-69
2024/03/31 11:22:49;;;;;;;6.82;2.10;;;18.00;76.50;;;;;;2309767;56;21283;-68
2024/03/31 11:25:16;;;;;;;5.37;2.22;;;18.10;76.50;;;;;;2308937;56;20975;-69
2024/03/31 11:27:43;;;;;;;14.73;2.40;;;18.10;76.40;;;;;;2309830;55;21021;-69
2024/03/31 11:30:10;;;;;;;5.43;1.98;;;18.20;76.50;;;;;;2310159;56;21011;-70
2024/03/31 11:32:38;;;;;;;6.07;2.40;;;18.30;76.40;;;;;;2310327;55;21019;-71
2024/03/31 11:35:07;;;;;;;7.75;2.65;;;18.30;76.20;;;;;;2309625;55;20959;-69
2024/03/31 11:37:33;;;;;;;7.93;2.80;;;18.40;76.40;;;;;;2310429;55;21077;-70
2024/03/31 11:40:04;;;;;;;7.65;2.50;;;18.50;77.00;;;;;;2310453;56;21022;-70
2024/03/31 11:42:33;;;;;;;6.05;2.95;;;18.60;77.20;;;;;;2310007;56;20964;-69
2024/03/31 11:45:00;;;;;;;5.20;2.45;;;18.60;77.50;;;;;;2310189;56;21343;-69
2024/03/31 11:47:26;;;;;;;8.88;2.92;;;18.70;77.00;;;;;;2310221;55;20952;-70
2024/03/31 11:49:56;;;;;;;5.05;1.75;;;18.80;76.80;;;;;;2309768;55;20967;-68
2024/03/31 11:52:23;;;;;;;6.15;2.30;;;18.90;76.30;;;;;;2310544;55;21071;-70
2024/03/31 11:54:49;;;;;;;8.45;2.05;;;18.90;76.40;;;;;;2309947;56;20967;-69
2024/03/31 11:57:15;;;;;;;5.10;1.98;;;18.80;76.00;;;;;;2309901;56;21762;-70
2024/03/31 11:59:42;;;;;;;5.82;1.83;;;19.00;76.00;;;;;;2309584;55;20968;-69
2024/03/31 12:02:08;;;;;;;7.82;2.00;;;19.00;75.80;;;;;;2310623;55;21075;-70
2024/03/31 12:04:34;;;;;;;4.57;1.70;;;19.10;75.70;;;;;;2309712;56;21043;-70
2024/03/31 12:07:03;;;;;;;6.05;1.92;;;19.10;75.30;;;;;;2295850;55;21855;-69
2024/03/31 12:09:30;;;;;;;4.32;1.62;;;19.10;75.10;;;;;;2301682;55;20956;-68
2024/03/31 12:11:59;;;;;;;6.87;1.85;;;19.10;75.10;;;;;;2310035;55;20939;-71
2024/03/31 12:14:26;;;;;;;6.68;1.60;;;19.20;75.40;;;;;;2310513;56;21541;-69
2024/03/31 12:16:52;;;;;;;5.68;1.40;;;19.20;75.40;;;;;;2310345;56;21657;-69
2024/03/31 12:19:19;;;;;;;7.72;1.40;;;19.10;75.20;;;;;;2310146;56;20979;-69
2024/03/31 12:21:45;;;;;;;5.05;1.35;;;19.30;75.30;;;;;;2310193;56;21424;-70
2024/03/31 12:24:12;;;;;;;3.83;1.27;;;19.30;75.30;;;;;;2309919;55;21216;-71
2024/03/31 12:26:38;;;;;;;9.32;2.45;;;19.30;75.30;;;;;;2309813;56;21015;-69
2024/03/31 12:29:07;;;;;;;4.90;1.70;;;19.40;75.40;;;;;;2309095;55;21876;-70
2024/03/31 12:31:33;;;;;;;5.47;1.73;;;19.40;75.50;;;;;;2288416;56;20967;-69
2024/03/31 12:34:00;;;;;;;5.20;1.67;;;19.50;75.60;;;;;;2309567;56;21039;-69
2024/03/31 12:36:26;;;;;;;6.25;1.62;;;19.50;75.50;;;;;;2304589;56;20993;-69
2024/03/31 12:38:54;;;;;;;5.07;1.73;;;19.60;75.50;;;;;;2287382;55;21325;-69
2024/03/31 12:41:21;;;;;;;5.15;2.00;;;19.60;75.50;;;;;;2281232;55;21029;-69
2024/03/31 12:43:48;;;;;;;6.70;1.87;;;19.70;75.60;;;;;;2301971;56;21275;-69